Time;durP1;ratioP1;P1;durP2;ratioP2;P2;SDS_P1;SDS_P2;PMS_P1;PMS_P2;Temp;Humidity;BMP_temperature;BMP_pressure;BME280_temperature;BME280_humidity;BME280_pressure;Samples;Min_cycle;Max_cycle;Signal;HPM_P1;HPM_P2
2024/02/20 00:03:27;;;;;;;2.80;1.98;;;;;;;7.99;100.00;150680.09;10613342;27;20111;-75
2024/02/20 00:08:29;;;;;;;1.67;1.20;;;;;;;8.03;100.00;150690.41;10631891;27;20074;-76
2024/02/20 00:13:30;;;;;;;2.53;1.50;;;;;;;7.98;100.00;150678.81;10632172;27;20096;-76
2024/02/20 00:18:32;;;;;;;2.65;1.55;;;;;;;7.96;100.00;150672.34;10631369;27;20065;-76
2024/02/20 00:23:36;;;;;;;1.42;1.15;;;;;;;7.99;100.00;150681.38;10629455;27;20541;-75
2024/02/20 00:28:42;;;;;;;2.70;1.30;;;;;;;7.93;100.00;150665.91;10630963;27;20074;-76
2024/02/20 00:33:43;;;;;;;1.83;1.27;;;;;;;7.98;100.00;150678.81;10612076;27;20523;-76
2024/02/20 00:38:45;;;;;;;1.52;1.15;;;;;;;8.04;100.00;150692.97;10611513;27;20114;-75
2024/02/20 00:43:47;;;;;;;1.08;0.93;;;;;;;8.03;100.00;150690.41;10629438;27;20042;-76
2024/02/20 00:48:50;;;;;;;1.55;1.10;;;;;;;8.03;100.00;150691.69;10611141;27;20068;-77
2024/02/20 00:53:52;;;;;;;3.35;1.60;;;;;;;8.14;100.00;150717.44;10629348;27;20528;-76
2024/02/20 00:58:54;;;;;;;2.22;1.45;;;;;;;8.09;100.00;150707.13;10629780;27;20043;-76
2024/02/20 01:03:56;;;;;;;2.65;1.30;;;;;;;8.05;100.00;150696.81;10628088;27;20076;-75
2024/02/20 01:08:58;;;;;;;1.70;1.23;;;;;;;8.12;100.00;150713.59;10628482;27;20046;-75
2024/02/20 01:14:00;;;;;;;2.08;1.20;;;;;;;8.13;100.00;150714.88;10627502;27;20059;-76
2024/02/20 01:19:06;;;;;;;1.70;1.25;;;;;;;8.15;100.00;150721.34;10610371;27;20097;-77
2024/02/20 01:24:08;;;;;;;1.63;1.35;;;;;;;8.09;100.00;150705.84;10628157;27;20053;-77
2024/02/20 01:29:10;;;;;;;2.28;1.30;;;;;;;8.20;100.00;150734.22;10628486;27;20138;-75
2024/02/20 01:34:12;;;;;;;2.72;1.77;;;;;;;8.15;100.00;150721.34;10609602;27;20096;-76
2024/02/20 01:39:14;;;;;;;2.63;1.77;;;;;;;8.04;100.00;150692.97;10627380;27;20051;-75
2024/02/20 01:44:17;;;;;;;2.22;1.67;;;;;;;8.02;100.00;150687.84;10628065;27;20087;-75
2024/02/20 01:49:18;;;;;;;3.58;1.88;;;;;;;7.99;100.00;150681.38;10627973;27;20040;-76
2024/02/20 01:54:21;;;;;;;2.65;1.75;;;;;;;8.06;100.00;150699.44;10626974;27;20075;-75
2024/02/20 01:59:24;;;;;;;2.70;1.80;;;;;;;8.05;100.00;150696.81;10626266;27;20123;-75
2024/02/20 02:04:25;;;;;;;2.33;2.13;;;;;;;8.06;100.00;150698.16;10626732;27;20039;-75
2024/02/20 02:09:27;;;;;;;2.95;1.88;;;;;;;8.09;100.00;150707.13;10626459;27;20059;-74
2024/02/20 02:14:29;;;;;;;2.40;1.88;;;;;;;8.16;100.00;150723.91;10627336;27;20067;-74
2024/02/20 02:19:31;;;;;;;3.00;1.80;;;;;;;7.84;100.00;150644.00;10629733;27;20371;-76
2024/02/20 02:24:36;;;;;;;2.05;1.75;;;;;;;7.90;100.00;150658.19;10627173;27;20135;-75
2024/02/20 02:29:38;;;;;;;4.00;2.35;;;;;;;7.98;100.00;150678.81;10626975;27;20487;-75
2024/02/20 02:34:40;;;;;;;2.47;2.03;;;;;;;7.99;100.00;150680.09;10627065;27;20104;-75
2024/02/20 02:39:42;;;;;;;2.83;1.80;;;;;;;8.04;100.00;150692.97;10627788;27;20035;-75
2024/02/20 02:44:46;;;;;;;2.95;2.03;;;;;;;8.04;100.00;150694.25;10628333;27;20047;-75
2024/02/20 02:49:48;;;;;;;2.92;1.95;;;;;;;8.05;100.00;150695.53;10628649;28;20035;-75
2024/02/20 02:54:50;;;;;;;3.63;2.13;;;;;;;7.99;100.00;150681.38;10627478;28;20147;-75
2024/02/20 02:59:52;;;;;;;2.47;1.95;;;;;;;7.82;100.00;150638.84;10626921;28;20035;-76
2024/02/20 03:04:56;;;;;;;3.05;1.98;;;;;;;8.00;100.00;150683.94;10626810;28;20118;-75
2024/02/20 03:09:59;;;;;;;2.88;2.13;;;;;;;7.95;100.00;150671.06;10609359;28;20551;-75
2024/02/20 03:15:00;;;;;;;1.90;1.70;;;;;;;7.95;100.00;150671.06;10626236;28;20046;-76
2024/02/20 03:20:14;;;;;;;2.72;2.30;;;;;;;7.87;100.00;150649.16;10609593;28;20068;-75
2024/02/20 03:25:16;;;;;;;2.80;2.13;;;;;;;7.92;100.00;150663.31;10627655;28;20042;-75
2024/02/20 03:30:19;;;;;;;2.28;1.92;;;;;;;7.73;100.00;150615.66;10629004;28;20047;-75
2024/02/20 03:35:21;;;;;;;3.53;2.47;;;;;;;7.87;100.00;150649.16;10625282;28;20039;-75
2024/02/20 03:40:23;;;;;;;3.58;2.25;;;;;;;7.81;100.00;150635.00;10624634;28;20114;-75
2024/02/20 03:45:25;;;;;;;4.63;2.30;;;;;;;7.77;100.00;150624.69;10625076;28;20452;-75
2024/02/20 03:50:27;;;;;;;3.53;2.58;;;;;;;7.76;100.00;150622.13;10627789;28;20054;-74
2024/02/20 03:55:29;;;;;;;9.43;3.05;;;;;;;7.58;100.00;150578.31;10610582;28;20114;-78
2024/02/20 04:00:30;;;;;;;3.83;2.78;;;;;;;7.66;100.00;150596.31;10636782;27;20142;-76
2024/02/20 04:05:33;;;;;;;5.30;3.28;;;;;;;7.70;100.00;150607.97;10636403;27;20047;-75
2024/02/20 04:10:35;;;;;;;4.25;3.03;;;;;;;7.66;100.00;150596.31;10636043;27;20092;-75
2024/02/20 04:15:37;;;;;;;3.85;3.08;;;;;;;7.59;100.00;150579.59;10636964;27;20126;-76
2024/02/20 04:20:40;;;;;;;5.10;3.05;;;;;;;7.43;100.00;150539.63;10617354;27;20039;-75
2024/02/20 04:25:43;;;;;;;4.13;3.40;;;;;;;7.56;100.00;150571.84;10636845;27;20066;-75
2024/02/20 04:30:45;;;;;;;4.15;3.53;;;;;;;7.64;100.00;150592.47;10618365;27;20070;-76
2024/02/20 04:35:48;;;;;;;4.80;3.78;;;;;;;7.47;100.00;150548.66;10635804;27;20039;-75
2024/02/20 04:40:50;;;;;;;5.45;3.58;;;;;;;7.25;100.00;150494.56;10634167;27;20066;-75
2024/02/20 04:45:51;;;;;;;5.57;3.05;;;;;;;7.19;100.00;150479.13;10634285;27;20039;-75
2024/02/20 04:50:53;;;;;;;6.07;3.78;;;;;;;7.52;100.00;150562.81;10616920;27;20035;-75
2024/02/20 04:55:55;;;;;;;5.40;3.17;;;;;;;7.52;100.00;150561.53;10634155;27;20070;-76
2024/02/20 05:00:57;;;;;;;4.18;3.78;;;;;;;7.36;100.00;150521.63;10636914;27;20035;-74
2024/02/20 05:05:59;;;;;;;5.00;3.75;;;;;;;7.44;100.00;150542.25;10640834;27;20084;-76
2024/02/20 05:11:01;;;;;;;4.47;3.30;;;;;;;7.36;100.00;150521.63;10625066;27;20039;-75
2024/02/20 05:16:04;;;;;;;5.85;4.20;;;;;;;7.33;100.00;150515.16;10623756;27;20049;-78
2024/02/20 05:21:07;;;;;;;4.50;3.35;;;;;;;7.58;100.00;150577.03;10639016;27;20103;-75
2024/02/20 05:26:09;;;;;;;4.03;3.35;;;;;;;7.58;100.00;150578.31;10638107;27;20061;-78
2024/02/20 05:31:28;;;;;;;3.75;3.22;;;;;;;7.34;100.00;150517.75;10638409;27;20047;-77
2024/02/20 05:36:31;;;;;;;3.60;2.80;;;;;;;7.61;100.00;150584.72;10617959;27;20049;-75
2024/02/20 05:41:33;;;;;;;4.75;4.07;;;;;;;7.53;100.00;150564.16;10633275;27;20085;-77
2024/02/20 05:46:36;;;;;;;5.22;4.07;;;;;;;7.37;100.00;150524.19;10631463;27;20039;-76
2024/02/20 05:51:38;;;;;;;5.90;3.72;;;;;;;7.31;100.00;150510.03;10628629;27;20043;-76
2024/02/20 05:56:43;;;;;;;5.13;3.83;;;;;;;7.16;100.00;150470.09;10627712;27;20402;-77
2024/02/20 06:01:45;;;;;;;2.80;2.13;;;;;;;6.99;100.00;150428.88;10627917;27;20035;-75
2024/02/20 06:06:47;;;;;;;4.22;2.40;;;;;;;7.09;100.00;150453.38;10627847;27;20049;-76
2024/02/20 06:11:49;;;;;;;4.18;3.00;;;;;;;6.96;100.00;150421.19;10608778;27;20189;-76
2024/02/20 06:16:51;;;;;;;5.32;4.18;;;;;;;7.05;100.00;150443.09;10626827;27;20554;-76
2024/02/20 06:21:53;;;;;;;4.28;3.63;;;;;;;6.93;100.00;150412.16;10625925;27;20129;-76
2024/02/20 06:26:54;;;;;;;6.70;4.50;;;;;;;6.78;100.00;150374.84;10626652;27;20495;-76
2024/02/20 06:31:58;;;;;;;7.50;4.13;;;;;;;6.83;100.00;150389.00;10628299;27;20495;-76
2024/02/20 06:37:00;;;;;;;6.15;3.70;;;;;;;7.06;100.00;150445.66;10627051;27;20051;-75
2024/02/20 06:42:02;;;;;;;2.92;1.98;;;;;;;6.85;100.00;150391.56;10626271;27;20035;-74
2024/02/20 06:47:03;;;;;;;3.10;2.00;;;;;;;6.87;100.00;150398.03;10625544;28;20399;-74
2024/02/20 06:52:06;;;;;;;4.70;2.00;;;;;;;6.93;100.00;150413.44;10627029;28;20092;-75
2024/02/20 06:57:09;;;;;;;2.30;1.90;;;;;;;7.10;100.00;150455.94;10626553;28;20541;-75
2024/02/20 07:02:11;;;;;;;3.03;1.35;;;;;;;7.06;100.00;150446.94;10628253;28;20419;-76
2024/02/20 07:07:13;;;;;;;1.33;1.10;;;;;;;7.01;100.00;150434.06;10629086;28;20047;-75
2024/02/20 07:12:16;;;;;;;2.13;1.15;;;;;;;7.10;100.00;150455.94;10626609;28;20050;-75
2024/02/20 07:17:18;;;;;;;1.27;1.10;;;;;;;7.13;100.00;150462.34;10626512;28;20043;-74
2024/02/20 07:22:19;;;;;;;1.27;1.15;;;;;;;7.21;100.00;150482.97;10609361;28;20122;-76
2024/02/20 07:27:21;;;;;;;1.88;1.05;;;;;;;7.20;100.00;150481.69;10633415;28;20104;-76
2024/02/20 07:32:23;;;;;;;1.95;1.30;;;;;;;7.15;100.00;150467.53;10638722;27;20039;-75
2024/02/20 07:37:25;;;;;;;3.90;1.00;;;;;;;7.16;100.00;150471.38;10638238;27;20550;-75
2024/02/20 07:42:27;;;;;;;1.45;0.80;;;;;;;7.28;100.00;150501.03;10637297;27;20046;-76
2024/02/20 07:47:29;;;;;;;1.98;0.82;;;;;;;7.43;100.00;150538.34;10640285;27;20560;-76
2024/02/20 07:52:31;;;;;;;1.67;0.90;;;;;;;7.46;100.00;150546.09;10637433;27;20448;-75
2024/02/20 07:57:33;;;;;;;1.02;0.93;;;;;;;7.50;100.00;150557.69;10616757;27;20058;-75
2024/02/20 08:02:35;;;;;;;2.00;1.30;;;;;;;7.37;100.00;150522.91;10637632;27;20055;-75
2024/02/20 08:07:37;;;;;;;1.33;1.00;;;;;;;7.50;100.00;150557.69;10636366;27;20084;-77
2024/02/20 08:12:42;;;;;;;1.08;0.93;;;;;;;7.51;100.00;150560.25;10635475;27;20491;-76
2024/02/20 08:17:44;;;;;;;1.27;0.90;;;;;;;7.54;100.00;150566.72;10634571;27;20038;-74
2024/02/20 08:22:47;;;;;;;1.77;1.15;;;;;;;7.17;100.00;150472.66;10634372;27;20483;-75
2024/02/20 08:27:48;;;;;;;0.98;0.88;;;;;;;7.33;100.00;150513.88;10644835;27;20091;-75
2024/02/20 08:32:50;;;;;;;2.45;1.08;;;;;;;7.19;100.00;150477.84;10659163;27;20050;-75
2024/02/20 08:37:54;;;;;;;13.68;11.05;;;;;;;7.27;100.00;150499.75;10614511;27;20043;-76
2024/02/20 08:42:56;;;;;;;1.70;1.20;;;;;;;7.13;100.00;150463.69;10658989;27;20063;-75
2024/02/20 08:48:00;;;;;;;2.08;1.90;;;;;;;7.02;100.00;150436.63;10673159;27;20099;-77
2024/02/20 08:53:07;;;;;;;5.22;3.28;;;;;;;7.15;100.00;150468.81;10654842;27;20071;-76
2024/02/20 08:58:09;;;;;;;4.53;2.33;;;;;;;6.99;100.00;150428.88;10662643;27;20062;-77
2024/02/20 09:03:11;;;;;;;1.50;1.30;;;;;;;7.12;100.00;150459.78;10631535;27;20099;-76
2024/02/20 09:08:14;;;;;;;0.80;0.80;;;;;;;7.28;100.00;150502.31;10612387;27;20039;-75
2024/02/20 09:13:17;;;;;;;1.25;0.80;;;;;;;7.29;100.00;150504.88;10631982;27;20078;-76
2024/02/20 09:18:19;;;;;;;2.55;1.50;;;;;;;7.52;100.00;150561.53;10630447;27;20487;-76
2024/02/20 09:23:22;;;;;;;1.02;0.85;;;;;;;7.57;100.00;150575.75;10633476;27;20043;-78
2024/02/20 09:28:24;;;;;;;2.13;0.77;;;;;;;7.37;100.00;150522.91;10610924;27;20031;-76
2024/02/20 09:33:25;;;;;;;4.80;2.88;;;;;;;7.61;100.00;150583.44;10628847;27;20171;-76
2024/02/20 09:38:27;;;;;;;1.50;0.95;;;;;;;7.80;100.00;150633.72;10609671;27;20499;-76
2024/02/20 09:43:31;;;;;;;3.92;1.00;;;;;;;7.89;100.00;150655.59;10628853;27;20127;-77
2024/02/20 09:48:33;;;;;;;1.75;0.63;;;;;;;7.69;100.00;150605.34;10629346;27;20063;-76
2024/02/20 09:53:36;;;;;;;1.50;0.60;;;;;;;8.12;100.00;150712.31;10628522;27;20047;-76
2024/02/20 09:58:38;;;;;;;5.18;0.68;;;;;;;8.02;100.00;150689.13;10629541;27;20225;-76
2024/02/20 10:03:42;;;;;;;2.80;0.80;;;;;;;7.81;100.00;150636.28;10612474;27;20083;-77
2024/02/20 10:08:50;;;;;;;1.10;0.80;;;;;;;7.96;100.00;150672.34;10628477;27;20043;-77
2024/02/20 10:13:53;;;;;;;2.50;0.60;;;;;;;7.88;97.32;150653.03;10628598;27;20035;-78
2024/02/20 10:19:04;;;;;;;2.55;0.50;;;;;;;7.51;100.00;150560.25;10629023;27;20068;-77
2024/02/20 10:24:07;;;;;;;0.88;0.60;;;;;;;7.40;100.00;150531.94;10627868;27;20039;-77
2024/02/20 10:29:21;;;;;;;3.30;1.58;;;;;;;7.08;100.00;150450.78;10627086;27;20046;-76
2024/02/20 10:34:23;;;;;;;7.28;1.10;;;;;;;7.02;100.00;150436.63;10607649;27;20088;-77
2024/02/20 10:39:25;;;;;;;5.25;1.60;;;;;;;7.04;100.00;150441.81;10626464;27;20035;-75
2024/02/20 10:44:29;;;;;;;5.63;1.58;;;;;;;7.16;100.00;150470.09;10607405;27;20076;-76
2024/02/20 10:49:33;;;;;;;7.30;1.58;;;;;;;7.37;100.00;150522.91;10607277;28;20039;-77
2024/02/20 10:54:39;;;;;;;6.03;1.73;;;;;;;7.50;100.00;150557.69;10625838;28;20130;-76
2024/02/20 10:59:51;;;;;;;5.53;1.90;;;;;;;7.49;100.00;150555.13;10625606;28;20078;-76
2024/02/20 11:04:53;;;;;;;4.07;1.45;;;;;;;7.42;100.00;150537.06;10627109;28;20586;-77
2024/02/20 11:10:09;;;;;;;2.90;1.50;;;;;;;7.42;100.00;150537.06;10616423;27;20035;-76
2024/02/20 11:15:19;;;;;;;4.47;2.03;;;;;;;7.37;100.00;150524.19;10635531;27;20085;-75
2024/02/20 11:20:23;;;;;;;5.07;1.83;;;;;;;7.46;100.00;150547.38;10636342;27;20062;-76
2024/02/20 11:25:32;;;;;;;5.07;2.00;;;;;;;7.56;100.00;150571.84;10616558;27;20043;-76
2024/02/20 11:30:34;;;;;;;3.63;1.67;;;;;;;7.83;100.00;150640.13;10635767;27;20039;-76
2024/02/20 11:35:36;;;;;;;8.18;1.67;;;;;;;8.01;99.79;150686.53;10635766;27;20039;-77
2024/02/20 11:40:43;;;;;;;8.70;1.95;;;;;;;7.97;97.01;150676.22;10634985;27;20070;-76
2024/02/20 11:45:46;;;;;;;6.75;0.93;;;;;;;7.86;93.53;150646.59;10633667;27;20083;-77
2024/02/20 11:50:53;;;;;;;4.47;1.23;;;;;;;7.96;89.96;150672.34;10615611;27;20035;-77
2024/02/20 11:55:55;;;;;;;6.35;1.00;;;;;;;8.20;90.68;150732.94;10613882;27;20495;-77
2024/02/20 12:01:05;;;;;;;6.43;1.00;;;;;;;8.37;90.35;150775.47;10615258;27;20151;-78
2024/02/20 12:06:09;;;;;;;3.17;0.90;;;;;;;8.28;87.55;150753.56;10634482;27;20044;-78
2024/02/20 12:11:16;;;;;;;7.93;1.42;;;;;;;8.20;90.64;150734.22;10614221;27;20039;-77
2024/02/20 12:16:29;;;;;;;9.10;1.08;;;;;;;8.28;90.89;150754.84;10634401;27;20127;-77
2024/02/20 12:21:32;;;;;;;4.97;1.33;;;;;;;8.28;89.13;150754.84;10632626;27;20046;-78
2024/02/20 12:26:34;;;;;;;5.80;1.10;;;;;;;8.41;84.65;150785.78;10633051;27;20051;-76
2024/02/20 12:31:35;;;;;;;7.32;2.75;;;;;;;8.32;87.61;150763.84;10633539;27;20392;-76
2024/02/20 12:36:38;;;;;;;10.32;1.75;;;;;;;8.37;83.37;150776.81;10632859;27;20077;-77
2024/02/20 12:41:40;;;;;;;8.30;1.45;;;;;;;8.53;84.11;150816.75;10632692;27;20077;-77
2024/02/20 12:46:42;;;;;;;4.97;1.10;;;;;;;8.38;84.54;150778.09;10613837;27;20054;-77
2024/02/20 12:51:44;;;;;;;3.38;0.93;;;;;;;8.45;83.99;150797.38;10632683;27;20148;-77
2024/02/20 12:56:46;;;;;;;6.55;1.63;;;;;;;8.69;81.53;150858.00;10632253;27;20092;-77
2024/02/20 13:01:48;;;;;;;21.75;6.28;;;;;;;8.89;80.95;150908.28;10631956;27;20047;-77
2024/02/20 13:06:50;;;;;;;7.63;1.40;;;;;;;9.10;79.86;150962.44;10631080;27;20067;-77
2024/02/20 13:11:59;;;;;;;30.00;9.32;;;;;;;9.32;75.12;151016.63;10632408;27;20039;-77
2024/02/20 13:17:01;;;;;;;46.97;11.65;;;;;;;9.16;72.67;150976.63;10630858;27;20035;-77
2024/02/20 13:22:03;;;;;;;24.67;4.80;;;;;;;9.19;75.34;150983.09;10594226;27;20051;-77
2024/02/20 13:27:08;;;;;;;27.15;7.30;;;;;;;8.95;76.62;150923.78;10629744;27;20039;-77
2024/02/20 13:32:09;;;;;;;11.00;5.45;;;;;;;8.76;76.14;150876.03;10628878;27;20047;-76
2024/02/20 13:37:11;;;;;;;5.32;2.28;;;;;;;8.73;76.57;150868.34;10611279;27;20047;-77
2024/02/20 13:42:13;;;;;;;5.95;2.28;;;;;;;8.69;78.17;150856.72;10630986;27;20051;-76
2024/02/20 13:47:16;;;;;;;4.10;1.17;;;;;;;8.56;78.44;150825.78;10611797;27;20039;-77
2024/02/20 13:52:25;;;;;;;4.20;1.20;;;;;;;8.64;78.50;150843.84;10629354;27;20035;-78
2024/02/20 13:57:28;;;;;;;5.85;1.13;;;;;;;8.46;79.31;150800.00;10628912;27;20078;-77
2024/02/20 14:02:30;;;;;;;4.38;1.00;;;;;;;8.42;78.03;150788.41;10612771;27;20043;-78
2024/02/20 14:07:32;;;;;;;6.72;1.05;;;;;;;8.67;76.24;150852.84;10630038;27;20035;-78
2024/02/20 14:12:34;;;;;;;5.47;1.08;;;;;;;8.44;77.99;150793.53;10632201;27;20067;-78
2024/02/20 14:17:37;;;;;;;3.50;1.00;;;;;;;8.51;78.24;150812.88;10629515;27;20059;-77
2024/02/20 14:22:39;;;;;;;1.15;0.77;;;;;;;8.42;79.02;150789.69;10628984;27;20043;-77
2024/02/20 14:27:41;;;;;;;2.95;1.27;;;;;;;8.66;73.90;150850.25;10629568;27;20440;-77
2024/02/20 14:32:45;;;;;;;3.55;0.90;;;;;;;8.70;72.53;150860.59;10628999;27;20042;-77
2024/02/20 14:37:47;;;;;;;3.25;0.95;;;;;;;8.50;73.07;150809.00;10629405;27;20050;-77
2024/02/20 14:42:50;;;;;;;6.90;1.45;;;;;;;8.54;74.94;150819.31;10629618;27;20117;-77
2024/02/20 14:47:52;;;;;;;5.03;0.90;;;;;;;8.49;74.21;150807.72;10630403;27;20067;-77
2024/02/20 14:52:53;;;;;;;5.82;1.73;;;;;;;8.47;74.18;150801.28;10627409;28;20071;-76
2024/02/20 14:57:57;;;;;;;6.53;0.90;;;;;;;8.28;77.88;150754.84;10627827;28;20042;-77
2024/02/20 15:02:59;;;;;;;4.40;1.02;;;;;;;8.23;78.40;150740.63;10608853;28;20054;-77
2024/02/20 15:08:01;;;;;;;5.25;1.23;;;;;;;8.24;76.22;150744.53;10608813;28;20039;-77
2024/02/20 15:13:03;;;;;;;4.00;1.00;;;;;;;8.12;78.84;150713.59;10626335;28;20043;-77
2024/02/20 15:18:05;;;;;;;6.40;1.08;;;;;;;8.11;78.15;150709.75;10626226;28;20035;-76
2024/02/20 15:23:08;;;;;;;6.28;1.08;;;;;;;8.04;78.70;150694.25;10607018;28;20475;-76
2024/02/20 15:28:10;;;;;;;3.67;1.17;;;;;;;8.04;79.44;150692.97;10626066;28;20468;-77
2024/02/20 15:33:12;;;;;;;3.17;1.10;;;;;;;8.06;78.87;150699.44;10625172;28;20047;-77
2024/02/20 15:38:14;;;;;;;3.75;0.90;;;;;;;8.03;78.98;150691.69;10627233;28;20084;-77
2024/02/20 15:43:19;;;;;;;7.05;1.02;;;;;;;8.13;79.34;150714.88;10626033;28;20043;-76
2024/02/20 15:48:21;;;;;;;11.70;2.63;;;;;;;8.02;79.76;150689.13;10607347;28;20071;-77
2024/02/20 15:53:23;;;;;;;6.57;1.00;;;;;;;7.83;81.89;150640.13;10628110;27;20035;-76
2024/02/20 15:58:24;;;;;;;6.03;1.13;;;;;;;8.04;80.73;150692.97;10634931;27;20503;-78
2024/02/20 16:03:26;;;;;;;9.60;1.00;;;;;;;7.72;84.05;150611.81;10636980;27;20126;-79
2024/02/20 16:08:28;;;;;;;5.60;1.20;;;;;;;7.70;84.50;150607.97;10635607;27;20508;-77
2024/02/20 16:13:30;;;;;;;5.57;1.38;;;;;;;7.93;82.55;150664.63;10614913;27;20478;-76
2024/02/20 16:18:35;;;;;;;5.95;0.88;;;;;;;8.03;81.40;150691.69;10614435;27;20047;-76
2024/02/20 16:23:37;;;;;;;5.25;1.23;;;;;;;8.04;80.96;150692.97;10633260;27;20118;-77
2024/02/20 16:28:38;;;;;;;3.67;1.23;;;;;;;7.89;82.38;150655.59;10634008;27;20051;-76
2024/02/20 16:33:40;;;;;;;3.50;1.23;;;;;;;7.95;82.58;150671.06;10629054;27;20499;-77
2024/02/20 16:38:43;;;;;;;7.22;1.30;;;;;;;7.96;82.59;150673.63;10632585;27;20035;-76
2024/02/20 16:43:45;;;;;;;4.57;1.15;;;;;;;7.84;83.40;150642.72;10614768;27;20051;-77
2024/02/20 16:48:47;;;;;;;4.28;0.88;;;;;;;7.90;82.39;150658.19;10632229;27;20047;-76
2024/02/20 16:53:49;;;;;;;8.77;1.25;;;;;;;7.92;83.21;150662.03;10631419;27;20050;-76
2024/02/20 16:58:51;;;;;;;9.93;1.25;;;;;;;7.75;84.05;150620.84;10632416;27;20068;-76
2024/02/20 17:03:53;;;;;;;12.70;1.58;;;;;;;7.81;83.04;150636.28;10630601;27;20043;-76
2024/02/20 17:08:57;;;;;;;6.00;2.05;;;;;;;7.67;84.87;150600.22;10613124;27;20120;-76
2024/02/20 17:13:59;;;;;;;7.60;1.83;;;;;;;7.71;84.10;150610.53;10628732;27;20054;-76
2024/02/20 17:19:01;;;;;;;4.72;0.68;;;;;;;7.64;84.89;150591.19;10630401;27;20099;-76
2024/02/20 17:24:04;;;;;;;7.90;1.30;;;;;;;7.74;83.45;150618.22;10628741;27;20407;-77
2024/02/20 17:29:06;;;;;;;3.30;1.13;;;;;;;7.53;85.24;150565.44;10628545;27;20035;-76
2024/02/20 17:34:08;;;;;;;3.55;1.25;;;;;;;7.77;84.13;150624.69;10629115;27;20107;-76
2024/02/20 17:39:10;;;;;;;6.07;1.13;;;;;;;7.77;84.13;150624.69;10628981;27;20047;-76
2024/02/20 17:44:11;;;;;;;4.57;1.42;;;;;;;7.79;84.65;150631.13;10610866;27;20086;-76
2024/02/20 17:49:13;;;;;;;5.28;1.27;;;;;;;7.74;85.00;150616.94;10640924;27;20035;-75
2024/02/20 17:54:15;;;;;;;6.10;1.48;;;;;;;7.63;85.59;150588.63;10672291;27;20042;-77
2024/02/20 17:59:17;;;;;;;5.38;1.20;;;;;;;7.70;85.87;150606.63;10632390;27;20145;-76
2024/02/20 18:04:19;;;;;;;4.82;1.40;;;;;;;7.71;85.56;150610.53;10636928;27;20041;-76
2024/02/20 18:09:23;;;;;;;5.20;1.25;;;;;;;7.66;86.77;150596.31;10669853;27;20061;-77
2024/02/20 18:14:25;;;;;;;4.95;1.30;;;;;;;7.66;86.58;150596.31;10669749;27;20043;-77
2024/02/20 18:19:27;;;;;;;5.50;1.48;;;;;;;7.57;88.07;150575.75;10669559;27;20047;-76
2024/02/20 18:24:28;;;;;;;8.20;1.40;;;;;;;7.68;87.90;150601.50;10617151;27;20046;-77
2024/02/20 18:29:30;;;;;;;6.22;1.30;;;;;;;7.71;88.70;150609.25;10628046;27;20039;-76
2024/02/20 18:34:32;;;;;;;8.13;2.15;;;;;;;7.79;88.96;150631.13;10628490;27;20043;-76
2024/02/20 18:39:34;;;;;;;5.63;1.17;;;;;;;7.65;90.60;150593.75;10611202;27;20035;-77
2024/02/20 18:44:37;;;;;;;5.47;1.40;;;;;;;7.66;91.33;150596.31;10595037;27;20065;-77
2024/02/20 18:49:43;;;;;;;5.75;1.27;;;;;;;7.66;91.35;150597.66;10629338;27;20038;-77
2024/02/20 18:54:45;;;;;;;4.97;1.70;;;;;;;7.65;91.73;150593.75;10611604;28;20051;-77
2024/02/20 18:59:46;;;;;;;6.13;1.10;;;;;;;7.64;92.30;150592.47;10627639;28;20051;-76
2024/02/20 19:04:48;;;;;;;3.15;1.00;;;;;;;7.71;92.08;150609.25;10613418;28;20040;-77
2024/02/20 19:09:50;;;;;;;5.22;1.60;;;;;;;7.73;91.48;150615.66;10603651;28;20122;-77
2024/02/20 19:14:52;;;;;;;8.38;2.45;;;;;;;7.77;91.36;150624.69;10568098;28;20052;-76
2024/02/20 19:19:54;;;;;;;3.25;1.30;;;;;;;7.73;91.12;150615.66;10585851;28;20027;-77
2024/02/20 19:24:56;;;;;;;5.90;1.65;;;;;;;7.58;92.17;150578.31;10586229;28;20047;-77
2024/02/20 19:29:58;;;;;;;8.50;1.27;;;;;;;7.72;90.52;150613.09;10591856;28;20039;-77
2024/02/20 19:35:00;;;;;;;3.17;1.20;;;;;;;7.64;90.47;150592.47;10593599;28;20075;-77
2024/02/20 19:40:02;;;;;;;5.40;1.88;;;;;;;7.74;89.56;150616.94;10592654;28;20043;-76
2024/02/20 19:45:06;;;;;;;6.63;1.63;;;;;;;7.70;89.12;150607.97;10574452;28;20419;-77
2024/02/20 19:50:07;;;;;;;4.20;1.23;;;;;;;7.72;88.44;150611.81;10593602;28;20031;-76
2024/02/20 19:55:09;;;;;;;3.33;1.10;;;;;;;7.82;87.40;150638.84;10593300;28;20053;-76
2024/02/20 20:00:12;;;;;;;4.13;1.55;;;;;;;7.79;87.50;150629.81;10594992;28;20411;-75
2024/02/20 20:05:19;;;;;;;4.95;1.50;;;;;;;7.77;86.98;150625.97;10595609;28;20059;-76
2024/02/20 20:10:22;;;;;;;5.70;1.42;;;;;;;7.92;85.44;150662.03;10582803;28;20046;-77
2024/02/20 20:15:24;;;;;;;5.00;1.20;;;;;;;7.78;86.22;150627.25;10602163;28;20427;-77
2024/02/20 20:20:26;;;;;;;5.65;1.90;;;;;;;7.83;85.51;150640.13;10581792;28;20101;-77
2024/02/20 20:25:29;;;;;;;5.38;1.55;;;;;;;7.77;85.75;150624.69;10598949;28;20035;-78
2024/02/20 20:30:31;;;;;;;5.00;1.80;;;;;;;7.75;85.95;150620.84;10598386;28;20036;-76
2024/02/20 20:35:34;;;;;;;5.40;1.58;;;;;;;7.80;84.98;150632.44;10581406;28;20069;-77
2024/02/20 20:40:36;;;;;;;4.03;1.10;;;;;;;7.79;84.31;150629.81;10578474;28;20040;-77
2024/02/20 20:45:41;;;;;;;2.67;1.25;;;;;;;7.81;84.38;150635.00;10597519;28;20035;-77
2024/02/20 20:50:43;;;;;;;6.13;1.48;;;;;;;7.77;85.05;150625.97;10579334;28;20032;-77
2024/02/20 20:55:48;;;;;;;3.80;1.45;;;;;;;7.83;84.29;150640.13;10579432;28;20047;-77
2024/02/20 21:00:51;;;;;;;7.03;1.50;;;;;;;7.75;84.40;150619.53;10597109;28;20047;-76
2024/02/20 21:05:53;;;;;;;5.30;1.67;;;;;;;7.71;84.67;150610.53;10578423;28;20398;-76
2024/02/20 21:10:56;;;;;;;3.38;1.27;;;;;;;7.63;85.07;150588.63;10575745;28;20091;-76
2024/02/20 21:15:58;;;;;;;8.82;1.42;;;;;;;7.61;85.02;150583.44;10591084;28;20098;-76
2024/02/20 21:21:03;;;;;;;7.70;1.90;;;;;;;7.59;85.07;150580.88;10591405;28;20051;-77
2024/02/20 21:26:04;;;;;;;5.57;1.60;;;;;;;7.70;84.35;150607.97;10590979;28;20092;-76
2024/02/20 21:31:11;;;;;;;6.90;1.80;;;;;;;7.83;84.02;150641.44;10590295;28;20046;-76
2024/02/20 21:36:13;;;;;;;4.30;1.80;;;;;;;7.86;84.03;150646.59;10590917;28;20039;-77
2024/02/20 21:41:15;;;;;;;5.30;1.90;;;;;;;7.80;84.02;150633.72;10571528;28;20040;-76
2024/02/20 21:46:21;;;;;;;8.57;1.38;;;;;;;7.82;83.62;150637.56;10590308;28;20039;-76
2024/02/20 21:51:23;;;;;;;9.90;2.13;;;;;;;7.87;83.29;150649.16;10589997;28;20046;-76
2024/02/20 21:56:25;;;;;;;3.28;1.40;;;;;;;7.82;83.53;150637.56;10589167;28;20281;-78
2024/02/20 22:01:27;;;;;;;5.57;1.65;;;;;;;7.82;83.42;150637.56;10587228;28;20040;-76
2024/02/20 22:06:29;;;;;;;4.30;1.60;;;;;;;7.84;83.03;150644.00;10570047;28;20050;-76
2024/02/20 22:11:31;;;;;;;5.22;1.20;;;;;;;7.72;83.44;150613.09;10568318;28;20108;-77
2024/02/20 22:16:33;;;;;;;6.07;1.45;;;;;;;7.83;82.85;150640.13;10586450;28;20040;-76
2024/02/20 22:21:35;;;;;;;5.07;1.85;;;;;;;7.74;83.42;150616.94;10567605;28;20097;-76
2024/02/20 22:26:37;;;;;;;3.08;1.55;;;;;;;7.59;83.71;150580.88;10568553;28;20472;-75
2024/02/20 22:31:39;;;;;;;8.30;1.77;;;;;;;7.65;83.31;150595.03;10586151;28;20506;-76
2024/02/20 22:36:41;;;;;;;3.90;1.50;;;;;;;7.62;83.93;150587.34;10568492;28;20067;-75
2024/02/20 22:41:43;;;;;;;5.13;1.30;;;;;;;7.52;84.13;150562.81;10585734;28;20089;-75
2024/02/20 22:46:45;;;;;;;6.85;1.58;;;;;;;7.54;84.01;150566.72;10569052;28;20053;-76
2024/02/20 22:51:47;;;;;;;6.53;1.67;;;;;;;7.48;85.02;150552.56;10586264;28;20036;-76
2024/02/20 22:56:49;;;;;;;3.72;1.73;;;;;;;7.65;83.76;150595.03;10587023;28;20063;-75
2024/02/20 23:01:51;;;;;;;6.45;1.70;;;;;;;7.70;83.33;150606.63;10584217;28;20046;-75
2024/02/20 23:06:53;;;;;;;3.45;1.52;;;;;;;7.57;84.02;150574.47;10591988;28;20039;-75
2024/02/20 23:11:55;;;;;;;4.47;1.42;;;;;;;7.65;83.74;150593.75;10573589;28;20036;-76
2024/02/20 23:16:57;;;;;;;4.43;1.50;;;;;;;7.70;83.82;150607.97;10591447;28;20048;-76
2024/02/20 23:21:59;;;;;;;4.10;1.50;;;;;;;7.76;83.43;150623.41;10589849;28;20032;-75